createdAt,value
2018-09-15T00:02:05.869Z,99.90
2018-09-15T00:04:34.493Z,99.90
2018-09-15T00:07:03.787Z,99.90
2018-09-15T00:09:33.913Z,99.90
2018-09-15T00:12:03.042Z,99.90
2018-09-15T00:14:32.507Z,99.90
2018-09-15T00:17:01.095Z,99.90
2018-09-15T00:19:29.741Z,99.90
2018-09-15T00:39:21.198Z,99.90
2018-09-15T00:41:49.855Z,99.90
2018-09-15T00:44:18.322Z,99.90
2018-09-15T00:46:47.301Z,99.90
2018-09-15T00:49:17.134Z,99.90
2018-09-15T00:51:45.583Z,99.90
2018-09-15T00:54:14.050Z,99.90
2018-09-15T00:56:44.329Z,99.90
2018-09-15T00:59:13.462Z,99.90
2018-09-15T01:01:41.925Z,99.90
2018-09-15T01:04:10.614Z,99.90
2018-09-15T01:06:40.813Z,99.90
2018-09-15T01:09:09.885Z,99.90
2018-09-15T01:11:39.017Z,99.90
2018-09-15T01:14:08.576Z,99.90
2018-09-15T01:16:37.215Z,99.90
2018-09-15T01:19:05.837Z,99.90
2018-09-15T01:21:35.906Z,99.90
2018-09-15T01:24:04.422Z,99.90
2018-09-15T01:26:32.973Z,99.90
2018-09-15T01:29:01.552Z,99.90
2018-09-15T01:31:30.022Z,99.90
2018-09-15T01:33:58.659Z,99.90
2018-09-15T01:36:28.529Z,99.90
2018-09-15T01:38:57.038Z,99.90
2018-09-15T01:41:26.273Z,99.90
2018-09-15T01:43:54.787Z,99.90
2018-09-15T01:46:23.221Z,99.90
2018-09-15T01:48:53.155Z,99.90
2018-09-15T01:51:21.819Z,99.90
2018-09-15T01:53:50.269Z,99.90
2018-09-15T01:56:18.895Z,99.90
2018-09-15T01:58:47.358Z,99.90
2018-09-15T02:01:15.812Z,99.90
2018-09-15T02:21:06.714Z,99.90
2018-09-15T02:23:36.385Z,99.90
2018-09-15T02:26:05.363Z,99.90
2018-09-15T02:28:34.230Z,99.90
2018-09-15T02:31:02.805Z,99.90
2018-09-15T02:33:32.212Z,99.90
2018-09-15T02:36:00.689Z,99.90
2018-09-15T02:38:29.158Z,99.90
2018-09-15T02:40:57.690Z,99.90
2018-09-15T02:43:26.386Z,99.90
2018-09-15T02:45:54.887Z,99.90
2018-09-15T02:48:23.351Z,99.90
2018-09-15T02:50:52.834Z,99.90
2018-09-15T02:53:22.262Z,99.90
2018-09-15T02:55:53.105Z,99.90
2018-09-15T02:58:21.614Z,99.90
2018-09-15T03:00:50.254Z,99.90
2018-09-15T03:03:19.783Z,99.90
2018-09-15T03:05:49.014Z,99.90
2018-09-15T03:08:18.145Z,99.90
2018-09-15T03:10:47.818Z,99.90
2018-09-15T03:13:17.059Z,99.90
2018-09-15T03:15:45.617Z,99.90
2018-09-15T03:18:14.107Z,99.90
2018-09-15T03:20:42.484Z,99.90
2018-09-15T03:23:11.089Z,99.90
2018-09-15T03:25:39.875Z,99.90
2018-09-15T03:28:08.377Z,99.90
2018-09-15T03:30:37.500Z,99.90
2018-09-15T03:33:06.242Z,99.90
2018-09-15T03:35:34.677Z,99.90
2018-09-15T03:38:03.203Z,99.90
2018-09-15T03:40:32.079Z,99.90
2018-09-15T03:43:01.768Z,99.90
2018-09-15T03:45:30.898Z,99.90
2018-09-15T03:48:00.269Z,99.90
2018-09-15T03:50:28.766Z,99.90
2018-09-15T03:52:57.285Z,99.90
2018-09-15T03:55:26.031Z,99.90
2018-09-15T03:57:54.523Z,99.90
2018-09-15T04:00:23.141Z,99.90
2018-09-15T04:02:51.999Z,99.90
2018-09-15T04:05:21.294Z,99.90
2018-09-15T04:07:50.585Z,99.90
2018-09-15T04:27:41.390Z,99.90
2018-09-15T04:30:10.062Z,99.90
2018-09-15T04:32:38.489Z,99.90
2018-09-15T04:35:08.405Z,99.90
2018-09-15T04:37:36.988Z,99.90
2018-09-15T04:40:05.502Z,99.90
2018-09-15T04:42:34.245Z,99.90
2018-09-15T04:45:02.791Z,99.90
2018-09-15T04:47:31.363Z,99.90
2018-09-15T04:49:59.796Z,99.90
2018-09-15T04:52:28.232Z,99.90
2018-09-15T04:54:56.776Z,99.90
2018-09-15T04:57:25.699Z,99.90
2018-09-15T04:59:54.198Z,99.90
2018-09-15T05:02:23.482Z,99.90
2018-09-15T05:04:53.314Z,99.90
2018-09-15T05:07:21.885Z,99.90
2018-09-15T05:09:50.352Z,99.90
2018-09-15T05:12:19.104Z,99.90
2018-09-15T05:14:47.605Z,99.90
2018-09-15T05:17:16.169Z,99.90
2018-09-15T05:19:44.805Z,99.90
2018-09-15T05:22:13.328Z,99.90
2018-09-15T05:24:41.900Z,99.90
2018-09-15T05:27:10.688Z,99.90
2018-09-15T05:29:39.962Z,99.90
2018-09-15T05:32:09.026Z,99.90
2018-09-15T05:34:38.676Z,99.90
2018-09-15T05:37:07.350Z,99.90
2018-09-15T05:56:56.444Z,99.90
2018-09-15T05:59:24.900Z,99.90
2018-09-15T06:01:53.550Z,99.90
2018-09-15T06:04:22.040Z,99.90
2018-09-15T06:06:51.236Z,99.90
2018-09-15T06:09:20.901Z,99.90
2018-09-15T06:11:51.069Z,99.90
2018-09-15T06:14:20.829Z,99.90
2018-09-15T06:16:49.303Z,99.90
2018-09-15T06:19:17.778Z,99.90
2018-09-15T06:21:46.380Z,99.90
2018-09-15T06:24:15.720Z,99.90
2018-09-15T06:26:44.277Z,99.90
2018-09-15T06:29:13.387Z,99.90
2018-09-15T06:31:42.138Z,99.90
2018-09-15T06:34:11.861Z,99.90
2018-09-15T06:36:40.489Z,99.90
2018-09-15T06:39:10.216Z,99.90
2018-09-15T06:41:39.608Z,99.90
2018-09-15T06:44:08.220Z,99.90
2018-09-15T06:46:37.142Z,99.90
2018-09-15T07:06:28.280Z,99.90
2018-09-15T07:08:56.817Z,99.90
2018-09-15T07:11:25.252Z,99.90
2018-09-15T07:13:53.873Z,99.90
2018-09-15T07:16:23.386Z,99.90
2018-09-15T07:18:51.885Z,99.90
2018-09-15T07:21:20.827Z,99.90
2018-09-15T07:23:49.318Z,99.90
2018-09-15T07:43:39.970Z,99.90
2018-09-15T07:46:08.507Z,99.90
2018-09-15T07:48:37.052Z,99.90
2018-09-15T07:51:07.335Z,99.90
2018-09-15T07:53:36.129Z,99.90
2018-09-15T07:56:05.597Z,99.90
2018-09-15T08:15:56.884Z,99.90
2018-09-15T08:18:25.614Z,99.90
2018-09-15T08:20:54.872Z,99.90
2018-09-15T08:23:24.333Z,99.90
2018-09-15T08:25:52.880Z,99.90
2018-09-15T08:28:21.636Z,99.90
2018-09-15T08:30:50.614Z,99.90
2018-09-15T08:33:19.308Z,99.90
2018-09-15T08:35:48.792Z,99.90
2018-09-15T08:38:17.713Z,99.90
2018-09-15T08:40:47.915Z,99.90
2018-09-15T09:00:38.666Z,99.90
2018-09-15T09:03:07.638Z,99.90
2018-09-15T09:05:37.352Z,99.90
2018-09-15T09:08:06.773Z,99.90
2018-09-15T09:10:35.875Z,99.90
2018-09-15T09:30:27.315Z,99.90
2018-09-15T09:50:18.807Z,99.90
2018-09-15T09:52:49.335Z,99.90
2018-09-15T09:55:18.845Z,99.90
2018-09-15T09:57:48.451Z,99.90
2018-09-15T10:00:23.592Z,99.90
2018-09-15T10:02:53.203Z,99.90
2018-09-15T10:05:23.218Z,99.90
2018-09-15T10:25:14.059Z,99.90
2018-09-15T10:27:43.474Z,99.90
2018-09-15T10:30:12.982Z,99.90
2018-09-15T10:32:42.492Z,99.90
2018-09-15T10:52:33.340Z,99.90
2018-09-15T10:55:03.162Z,99.90
2018-09-15T10:57:32.663Z,99.90
2018-09-15T11:17:24.332Z,99.90
2018-09-15T11:19:54.762Z,99.90
2018-09-15T11:22:24.130Z,99.90
2018-09-15T11:24:54.597Z,99.90
2018-09-15T11:27:23.856Z,99.90
2018-09-15T11:29:56.823Z,99.90
2018-09-15T11:32:26.709Z,99.90
2018-09-15T11:34:56.320Z,99.90
2018-09-15T11:37:25.955Z,99.90
2018-09-15T11:39:55.541Z,99.90
2018-09-15T11:42:25.152Z,99.90
2018-09-15T11:44:55.070Z,99.90
2018-09-15T11:47:24.548Z,99.90
2018-09-15T11:49:54.089Z,99.90
2018-09-15T11:52:23.898Z,99.90
2018-09-15T11:54:53.611Z,99.90
2018-09-15T11:57:24.148Z,99.90
2018-09-15T11:59:53.612Z,99.90
2018-09-15T12:02:26.801Z,99.90
2018-09-15T12:04:57.267Z,99.90
2018-09-15T12:24:48.432Z,99.90
2018-09-15T12:27:18.618Z,99.90
2018-09-15T12:29:48.169Z,99.90
2018-09-15T12:32:17.779Z,99.90
2018-09-15T12:34:47.589Z,99.90
2018-09-15T12:37:17.098Z,99.90
2018-09-15T12:39:46.601Z,99.90
2018-09-15T12:42:16.016Z,99.90
2018-09-15T12:44:45.618Z,99.90
2018-09-15T12:47:15.650Z,99.90
2018-09-15T12:49:45.260Z,99.90
2018-09-15T12:52:16.333Z,99.90
2018-09-15T12:54:45.918Z,99.90
2018-09-15T12:57:15.423Z,99.90
2018-09-15T12:59:45.445Z,99.90
2018-09-15T13:02:14.999Z,99.90
2018-09-15T13:04:44.558Z,99.90
2018-09-15T13:07:14.075Z,99.90
2018-09-15T13:09:43.384Z,99.90
2018-09-15T13:12:12.925Z,99.90
2018-09-15T13:14:42.386Z,99.90
2018-09-15T13:17:13.232Z,99.90
2018-09-15T13:19:42.986Z,99.90
2018-09-15T13:22:12.356Z,99.90
2018-09-15T13:24:42.514Z,99.90
2018-09-15T13:27:12.181Z,99.90
2018-09-15T13:29:41.911Z,99.30
2018-09-15T13:32:11.612Z,99.90
2018-09-15T13:34:42.345Z,97.00
2018-09-15T13:37:11.861Z,97.90
2018-09-15T13:39:42.385Z,99.90
2018-09-15T13:42:12.000Z,99.90
2018-09-15T13:44:41.606Z,99.90
2018-09-15T13:47:11.629Z,99.90
2018-09-15T13:49:41.959Z,99.90
2018-09-15T13:52:12.690Z,99.90
2018-09-15T13:54:44.455Z,99.90
2018-09-15T13:57:14.066Z,99.80
2018-09-15T13:59:43.775Z,91.50
2018-09-15T14:02:13.492Z,82.60
2018-09-15T14:04:43.138Z,86.70
2018-09-15T14:07:13.421Z,77.30
2018-09-15T14:09:44.476Z,71.10
2018-09-15T14:12:13.879Z,73.40
2018-09-15T14:14:43.492Z,70.60
2018-09-15T14:17:13.402Z,66.70
2018-09-15T14:37:03.954Z,59.90
2018-09-15T14:39:33.868Z,58.80
2018-09-15T14:42:03.578Z,61.00
2018-09-15T14:44:34.006Z,59.90
2018-09-15T14:47:03.725Z,60.30
2018-09-15T14:49:33.326Z,60.20
2018-09-15T15:09:30.736Z,59.10
2018-09-15T15:12:00.069Z,59.60
2018-09-15T15:14:30.463Z,59.00
2018-09-15T15:17:00.998Z,59.80
2018-09-15T15:19:30.515Z,59.90
2018-09-15T15:22:00.114Z,61.60
2018-09-15T15:24:30.640Z,64.20
2018-09-15T15:27:00.047Z,64.90
2018-09-15T15:29:29.674Z,64.60
2018-09-15T15:49:20.562Z,57.50
2018-09-15T15:51:50.736Z,58.50
2018-09-15T15:54:21.069Z,61.20
2018-09-15T16:14:12.531Z,69.40
2018-09-15T16:34:02.966Z,85.20
2018-09-15T16:53:55.361Z,99.90
2018-09-15T16:56:24.970Z,99.90
2018-09-15T16:58:54.382Z,99.90
2018-09-15T17:18:45.422Z,99.90
2018-09-15T17:21:15.552Z,99.90
2018-09-15T17:23:45.559Z,99.90
2018-09-15T17:26:15.718Z,99.90
2018-09-15T17:28:45.202Z,99.90
2018-09-15T17:31:15.546Z,99.90
2018-09-15T17:33:45.544Z,99.90
2018-09-15T17:36:15.974Z,99.90
2018-09-15T17:38:45.692Z,99.90
2018-09-15T17:41:15.531Z,99.90
2018-09-15T17:43:45.095Z,99.90
2018-09-15T17:46:14.625Z,99.90
2018-09-15T17:48:44.238Z,99.90
2018-09-15T17:51:13.742Z,99.90
2018-09-15T17:53:44.073Z,99.90
2018-09-15T17:56:13.668Z,99.90
2018-09-15T17:58:44.012Z,99.90
2018-09-15T18:01:14.544Z,99.90
2018-09-15T18:03:44.661Z,99.90
2018-09-15T18:23:36.743Z,99.90
2018-09-15T18:26:06.451Z,99.90
2018-09-15T18:28:36.067Z,99.90
2018-09-15T18:48:28.861Z,99.90
2018-09-15T18:50:58.268Z,99.90
2018-09-15T18:53:27.883Z,99.90
2018-09-15T19:13:19.341Z,99.90
2018-09-15T19:15:49.568Z,99.90
2018-09-15T19:18:19.281Z,99.90
2018-09-15T19:20:49.006Z,99.90
2018-09-15T19:23:18.598Z,99.90
2018-09-15T19:43:09.549Z,99.90
2018-09-15T19:45:39.276Z,99.90
2018-09-15T20:05:31.346Z,99.90
2018-09-15T20:08:00.961Z,99.90
2018-09-15T20:10:30.665Z,99.90
2018-09-15T20:13:02.664Z,99.90
2018-09-15T20:32:53.599Z,99.90
2018-09-15T20:35:23.499Z,99.90
2018-09-15T20:37:53.830Z,99.90
2018-09-15T20:40:23.575Z,99.90
2018-09-15T20:42:53.360Z,99.90
2018-09-15T20:45:22.873Z,99.90
2018-09-15T20:47:52.479Z,99.90
2018-09-15T20:50:22.903Z,99.90
2018-09-15T20:52:52.509Z,99.90
2018-09-15T20:55:22.125Z,99.90
2018-09-15T20:57:52.042Z,99.90
2018-09-15T21:00:21.632Z,99.90
2018-09-15T21:02:52.084Z,99.90
2018-09-15T21:05:21.748Z,99.90
2018-09-15T21:07:51.406Z,99.90
2018-09-15T21:10:22.144Z,99.90
2018-09-15T21:12:52.266Z,99.90
2018-09-15T21:15:22.587Z,99.90
2018-09-15T21:35:13.299Z,99.90
2018-09-15T21:37:42.902Z,99.90
2018-09-15T21:40:12.995Z,99.90
2018-09-15T21:42:42.897Z,99.90
2018-09-15T21:45:12.608Z,99.90
2018-09-15T21:47:42.219Z,99.90
2018-09-15T22:07:33.563Z,99.90
2018-09-15T22:27:24.736Z,99.90
2018-09-15T22:29:53.371Z,99.90
2018-09-15T22:32:21.939Z,99.90
2018-09-15T22:34:50.523Z,99.90
2018-09-15T22:37:20.011Z,99.90
2018-09-15T22:39:48.579Z,99.90
2018-09-15T22:42:17.048Z,99.90
2018-09-15T22:44:46.403Z,99.90
2018-09-15T22:47:14.959Z,99.90
2018-09-15T22:49:43.345Z,99.90
2018-09-15T23:09:34.407Z,99.90
2018-09-15T23:12:03.416Z,99.90
2018-09-15T23:14:31.986Z,99.90
2018-09-15T23:17:00.581Z,99.90
2018-09-15T23:19:29.630Z,99.90
2018-09-15T23:21:58.757Z,99.90
2018-09-15T23:24:27.596Z,99.90
2018-09-15T23:26:56.890Z,99.90
2018-09-15T23:29:26.286Z,99.90
2018-09-15T23:31:55.894Z,99.90
2018-09-15T23:51:47.250Z,99.90
2018-09-15T23:54:17.229Z,99.90
2018-09-15T23:56:45.667Z,99.90
2018-09-15T23:59:14.080Z,99.90
